sensor_id;sensor_type;location;lat;lon;timestamp;pressure;altitude;pressure_sealevel;temperature;humidity
69247;BME280;56358;56.328;43.992;2022-07-26T00:01:46;99731.16;;;20.95;76.31
69247;BME280;56358;56.328;43.992;2022-07-26T00:03:49;99754.63;;;21.03;76.49
69247;BME280;56358;56.328;43.992;2022-07-26T00:05:50;99748.78;;;20.99;77.06
69247;BME280;56358;56.328;43.992;2022-07-26T00:07:51;99738.91;;;20.91;77.36
69247;BME280;56358;56.328;43.992;2022-07-26T00:10:11;99681.97;;;20.48;77.37
69247;BME280;56358;56.328;43.992;2022-07-26T00:12:11;99770.94;;;20.89;77.41
69247;BME280;56358;56.328;43.992;2022-07-26T00:14:15;99761.50;;;20.85;77.31
69247;BME280;56358;56.328;43.992;2022-07-26T00:16:16;99761.94;;;20.82;77.21
69247;BME280;56358;56.328;43.992;2022-07-26T00:18:19;99756.25;;;20.77;77.50
69247;BME280;56358;56.328;43.992;2022-07-26T00:20:20;99733.53;;;20.56;77.66
69247;BME280;56358;56.328;43.992;2022-07-26T00:22:21;99754.91;;;20.59;77.56
69247;BME280;56358;56.328;43.992;2022-07-26T00:24:33;99757.41;;;20.61;78.27
69247;BME280;56358;56.328;43.992;2022-07-26T00:26:34;99751.94;;;20.54;78.14
69247;BME280;56358;56.328;43.992;2022-07-26T00:28:35;99741.44;;;20.45;78.45
69247;BME280;56358;56.328;43.992;2022-07-26T00:30:36;99741.59;;;20.36;79.07
69247;BME280;56358;56.328;43.992;2022-07-26T00:32:37;99733.19;;;20.31;79.00
69247;BME280;56358;56.328;43.992;2022-07-26T00:34:38;99761.94;;;20.40;78.93
69247;BME280;56358;56.328;43.992;2022-07-26T00:36:39;99731.28;;;20.25;78.64
69247;BME280;56358;56.328;43.992;2022-07-26T00:38:39;99753.69;;;20.27;78.88
69247;BME280;56358;56.328;43.992;2022-07-26T00:40:40;99688.19;;;19.87;79.44
69247;BME280;56358;56.328;43.992;2022-07-26T00:42:42;99764.63;;;20.34;79.57
69247;BME280;56358;56.328;43.992;2022-07-26T00:44:44;99741.34;;;20.24;79.81
69247;BME280;56358;56.328;43.992;2022-07-26T00:46:45;99729.13;;;20.14;79.55
69247;BME280;56358;56.328;43.992;2022-07-26T00:48:46;99747.59;;;20.25;79.83
69247;BME280;56358;56.328;43.992;2022-07-26T00:50:46;99744.03;;;20.18;79.94
69247;BME280;56358;56.328;43.992;2022-07-26T00:52:48;99771.28;;;20.24;79.71
69247;BME280;56358;56.328;43.992;2022-07-26T00:54:50;99744.81;;;20.12;79.82
69247;BME280;56358;56.328;43.992;2022-07-26T00:56:53;99732.44;;;20.09;79.56
69247;BME280;56358;56.328;43.992;2022-07-26T00:58:54;99767.28;;;20.20;79.33
69247;BME280;56358;56.328;43.992;2022-07-26T01:00:55;99725.31;;;20.01;79.31
69247;BME280;56358;56.328;43.992;2022-07-26T01:02:56;99746.50;;;20.13;79.24
69247;BME280;56358;56.328;43.992;2022-07-26T01:05:00;99762.66;;;20.21;79.65
69247;BME280;56358;56.328;43.992;2022-07-26T01:07:02;99749.41;;;20.11;79.74
69247;BME280;56358;56.328;43.992;2022-07-26T01:09:03;99761.63;;;20.22;79.71
69247;BME280;56358;56.328;43.992;2022-07-26T01:11:05;99759.94;;;20.21;80.22
69247;BME280;56358;56.328;43.992;2022-07-26T01:13:05;99701.97;;;19.85;79.80
69247;BME280;56358;56.328;43.992;2022-07-26T01:15:07;99771.47;;;20.23;80.00
69247;BME280;56358;56.328;43.992;2022-07-26T01:17:12;99773.75;;;20.19;79.90
69247;BME280;56358;56.328;43.992;2022-07-26T01:19:13;99771.69;;;20.21;79.98
69247;BME280;56358;56.328;43.992;2022-07-26T01:21:14;99751.72;;;20.14;79.79
69247;BME280;56358;56.328;43.992;2022-07-26T01:23:15;99752.34;;;20.09;79.34
69247;BME280;56358;56.328;43.992;2022-07-26T01:25:27;99794.91;;;20.24;79.50
69247;BME280;56358;56.328;43.992;2022-07-26T01:27:28;99740.41;;;20.10;79.13
69247;BME280;56358;56.328;43.992;2022-07-26T01:29:29;99746.25;;;20.07;79.16
69247;BME280;56358;56.328;43.992;2022-07-26T01:31:30;99759.34;;;20.25;79.03
69247;BME280;56358;56.328;43.992;2022-07-26T01:33:31;99705.78;;;19.91;78.67
69247;BME280;56358;56.328;43.992;2022-07-26T01:35:32;99759.53;;;20.24;78.85
69247;BME280;56358;56.328;43.992;2022-07-26T01:37:33;99701.16;;;19.91;78.72
69247;BME280;56358;56.328;43.992;2022-07-26T01:39:34;99760.63;;;20.30;78.45
69247;BME280;56358;56.328;43.992;2022-07-26T01:41:34;99770.28;;;20.32;78.86
69247;BME280;56358;56.328;43.992;2022-07-26T01:43:35;99746.31;;;20.21;78.75
69247;BME280;56358;56.328;43.992;2022-07-26T01:45:39;99758.72;;;20.30;78.73
69247;BME280;56358;56.328;43.992;2022-07-26T01:47:40;99764.19;;;20.30;78.88
69247;BME280;56358;56.328;43.992;2022-07-26T01:49:41;99766.94;;;20.37;79.01
69247;BME280;56358;56.328;43.992;2022-07-26T01:51:41;99773.63;;;20.34;79.52
69247;BME280;56358;56.328;43.992;2022-07-26T01:53:42;99707.88;;;19.96;79.29
69247;BME280;56358;56.328;43.992;2022-07-26T01:55:45;99771.56;;;20.36;79.92
69247;BME280;56358;56.328;43.992;2022-07-26T01:57:46;99767.34;;;20.34;80.17
69247;BME280;56358;56.328;43.992;2022-07-26T01:59:46;99782.06;;;20.46;79.78
69247;BME280;56358;56.328;43.992;2022-07-26T02:01:47;99791.50;;;20.50;79.81
69247;BME280;56358;56.328;43.992;2022-07-26T02:03:48;99783.50;;;20.42;79.81
69247;BME280;56358;56.328;43.992;2022-07-26T02:05:48;99744.63;;;20.20;79.68
69247;BME280;56358;56.328;43.992;2022-07-26T02:07:49;99789.44;;;20.52;79.58
69247;BME280;56358;56.328;43.992;2022-07-26T02:09:50;99785.84;;;20.52;79.66
69247;BME280;56358;56.328;43.992;2022-07-26T02:11:51;99801.78;;;20.48;79.71
69247;BME280;56358;56.328;43.992;2022-07-26T02:13:51;99788.56;;;20.52;79.59
69247;BME280;56358;56.328;43.992;2022-07-26T02:15:52;99754.94;;;20.24;79.43
69247;BME280;56358;56.328;43.992;2022-07-26T02:17:53;99802.44;;;20.57;79.43
69247;BME280;56358;56.328;43.992;2022-07-26T02:19:53;99803.25;;;20.57;79.52
69247;BME280;56358;56.328;43.992;2022-07-26T02:21:55;99796.53;;;20.53;79.25
69247;BME280;56358;56.328;43.992;2022-07-26T02:23:55;99730.63;;;20.16;78.85
69247;BME280;56358;56.328;43.992;2022-07-26T02:25:57;99806.44;;;20.61;79.20
69247;BME280;56358;56.328;43.992;2022-07-26T02:27:57;99795.75;;;20.59;78.96
69247;BME280;56358;56.328;43.992;2022-07-26T02:29:58;99766.75;;;20.45;78.86
69247;BME280;56358;56.328;43.992;2022-07-26T02:31:59;99802.97;;;20.74;78.17
69247;BME280;56358;56.328;43.992;2022-07-26T02:34:01;99793.75;;;20.75;77.69
69247;BME280;56358;56.328;43.992;2022-07-26T02:36:02;99804.69;;;20.82;77.37
69247;BME280;56358;56.328;43.992;2022-07-26T02:38:05;99795.91;;;20.93;77.08
69247;BME280;56358;56.328;43.992;2022-07-26T02:40:07;99795.91;;;20.93;77.26
69247;BME280;56358;56.328;43.992;2022-07-26T02:42:07;99773.44;;;20.84;76.54
69247;BME280;56358;56.328;43.992;2022-07-26T02:44:08;99807.28;;;21.10;75.88
69247;BME280;56358;56.328;43.992;2022-07-26T02:46:09;99810.88;;;21.17;75.68
69247;BME280;56358;56.328;43.992;2022-07-26T02:48:10;99780.22;;;21.02;75.58
69247;BME280;56358;56.328;43.992;2022-07-26T02:50:11;99819.28;;;21.29;75.33
69247;BME280;56358;56.328;43.992;2022-07-26T02:52:12;99785.91;;;21.20;74.94
69247;BME280;56358;56.328;43.992;2022-07-26T02:54:13;99814.28;;;21.39;75.30
69247;BME280;56358;56.328;43.992;2022-07-26T02:56:14;99829.81;;;21.52;75.21
69247;BME280;56358;56.328;43.992;2022-07-26T02:58:14;99804.44;;;21.45;75.51
69247;BME280;56358;56.328;43.992;2022-07-26T03:00:17;99822.31;;;21.61;75.61
69247;BME280;56358;56.328;43.992;2022-07-26T03:02:33;99825.03;;;21.61;75.63
69247;BME280;56358;56.328;43.992;2022-07-26T03:04:35;99824.00;;;21.69;75.71
69247;BME280;56358;56.328;43.992;2022-07-26T03:06:35;99819.59;;;21.68;75.46
69247;BME280;56358;56.328;43.992;2022-07-26T03:08:37;99812.44;;;21.73;75.03
69247;BME280;56358;56.328;43.992;2022-07-26T03:10:37;99805.53;;;21.64;74.90
69247;BME280;56358;56.328;43.992;2022-07-26T03:12:39;99808.03;;;21.79;74.66
69247;BME280;56358;56.328;43.992;2022-07-26T03:14:39;99823.38;;;21.87;74.48
69247;BME280;56358;56.328;43.992;2022-07-26T03:16:40;99824.41;;;21.92;74.35
69247;BME280;56358;56.328;43.992;2022-07-26T03:18:41;99820.03;;;21.91;74.71
69247;BME280;56358;56.328;43.992;2022-07-26T03:20:41;99832.38;;;22.01;74.46
69247;BME280;56358;56.328;43.992;2022-07-26T03:22:42;99809.72;;;21.93;74.12
69247;BME280;56358;56.328;43.992;2022-07-26T03:24:43;99813.09;;;21.96;73.96
69247;BME280;56358;56.328;43.992;2022-07-26T03:26:43;99782.22;;;21.75;73.99
69247;BME280;56358;56.328;43.992;2022-07-26T03:28:44;99807.63;;;22.02;73.84
69247;BME280;56358;56.328;43.992;2022-07-26T03:30:45;99807.00;;;22.00;73.88
69247;BME280;56358;56.328;43.992;2022-07-26T03:32:46;99839.13;;;22.18;73.30
69247;BME280;56358;56.328;43.992;2022-07-26T03:34:46;99827.09;;;22.26;72.96
69247;BME280;56358;56.328;43.992;2022-07-26T03:36:47;99832.56;;;22.33;72.56
69247;BME280;56358;56.328;43.992;2022-07-26T03:38:51;99826.50;;;22.37;72.24
69247;BME280;56358;56.328;43.992;2022-07-26T03:40:51;99818.06;;;22.46;71.90
69247;BME280;56358;56.328;43.992;2022-07-26T03:42:52;99813.03;;;22.49;71.77
69247;BME280;56358;56.328;43.992;2022-07-26T03:44:53;99813.81;;;22.63;71.20
69247;BME280;56358;56.328;43.992;2022-07-26T03:46:53;99808.13;;;22.65;70.74
69247;BME280;56358;56.328;43.992;2022-07-26T03:48:54;99757.38;;;22.37;70.45
69247;BME280;56358;56.328;43.992;2022-07-26T03:50:55;99755.91;;;22.41;70.48
69247;BME280;56358;56.328;43.992;2022-07-26T03:52:56;99831.38;;;22.87;70.09
69247;BME280;56358;56.328;43.992;2022-07-26T03:54:56;99823.59;;;22.91;69.57
69247;BME280;56358;56.328;43.992;2022-07-26T03:56:57;99758.56;;;22.54;70.04
69247;BME280;56358;56.328;43.992;2022-07-26T03:59:03;99822.53;;;22.99;70.07
69247;BME280;56358;56.328;43.992;2022-07-26T04:01:04;99829.00;;;23.04;70.04
69247;BME280;56358;56.328;43.992;2022-07-26T04:03:07;99823.13;;;23.01;69.94
69247;BME280;56358;56.328;43.992;2022-07-26T04:05:09;99817.88;;;22.99;69.74
69247;BME280;56358;56.328;43.992;2022-07-26T04:07:10;99823.91;;;23.15;69.66
69247;BME280;56358;56.328;43.992;2022-07-26T04:09:11;99778.41;;;22.88;69.46
69247;BME280;56358;56.328;43.992;2022-07-26T04:11:14;99813.41;;;23.18;69.21
69247;BME280;56358;56.328;43.992;2022-07-26T04:13:15;99824.66;;;23.35;69.05
69247;BME280;56358;56.328;43.992;2022-07-26T04:15:17;99819.75;;;23.44;68.76
69247;BME280;56358;56.328;43.992;2022-07-26T04:17:20;99808.38;;;23.47;68.24
69247;BME280;56358;56.328;43.992;2022-07-26T04:19:21;99827.16;;;23.69;68.04
69247;BME280;56358;56.328;43.992;2022-07-26T04:21:21;99820.38;;;23.78;67.70
69247;BME280;56358;56.328;43.992;2022-07-26T04:23:22;99832.91;;;23.92;67.04
69247;BME280;56358;56.328;43.992;2022-07-26T04:25:25;99816.91;;;23.89;66.62
69247;BME280;56358;56.328;43.992;2022-07-26T04:27:26;99831.28;;;24.10;66.61
69247;BME280;56358;56.328;43.992;2022-07-26T04:29:27;99842.78;;;24.19;66.41
69247;BME280;56358;56.328;43.992;2022-07-26T04:31:28;99825.28;;;24.20;66.23
69247;BME280;56358;56.328;43.992;2022-07-26T04:33:28;99839.91;;;24.32;65.76
69247;BME280;56358;56.328;43.992;2022-07-26T04:35:29;99845.31;;;24.39;65.75
69247;BME280;56358;56.328;43.992;2022-07-26T04:37:40;99843.88;;;24.36;65.88
69247;BME280;56358;56.328;43.992;2022-07-26T04:39:42;99838.03;;;24.33;65.50
69247;BME280;56358;56.328;43.992;2022-07-26T04:41:42;99828.19;;;24.25;65.45
69247;BME280;56358;56.328;43.992;2022-07-26T04:43:43;99850.81;;;24.39;65.74
69247;BME280;56358;56.328;43.992;2022-07-26T04:45:45;99785.97;;;24.14;65.53
69247;BME280;56358;56.328;43.992;2022-07-26T04:47:49;99838.66;;;24.53;64.81
69247;BME280;56358;56.328;43.992;2022-07-26T04:49:50;99843.22;;;24.59;64.61
69247;BME280;56358;56.328;43.992;2022-07-26T04:51:50;99837.47;;;24.68;64.73
69247;BME280;56358;56.328;43.992;2022-07-26T04:53:51;99826.56;;;24.61;64.74
69247;BME280;56358;56.328;43.992;2022-07-26T04:55:52;99828.63;;;24.66;65.23
69247;BME280;56358;56.328;43.992;2022-07-26T04:57:53;99823.31;;;24.71;64.87
69247;BME280;56358;56.328;43.992;2022-07-26T04:59:53;99827.56;;;24.85;64.31
69247;BME280;56358;56.328;43.992;2022-07-26T05:01:56;99827.25;;;24.93;64.29
69247;BME280;56358;56.328;43.992;2022-07-26T05:03:57;99816.56;;;25.04;63.88
69247;BME280;56358;56.328;43.992;2022-07-26T05:05:57;99823.09;;;25.21;63.31
69247;BME280;56358;56.328;43.992;2022-07-26T05:08:00;99819.63;;;25.26;62.91
69247;BME280;56358;56.328;43.992;2022-07-26T05:10:01;99815.97;;;25.32;62.84
69247;BME280;56358;56.328;43.992;2022-07-26T05:12:02;99812.31;;;25.38;62.50
69247;BME280;56358;56.328;43.992;2022-07-26T05:14:03;99821.78;;;25.54;62.31
69247;BME280;56358;56.328;43.992;2022-07-26T05:16:04;99710.06;;;24.89;61.78
69247;BME280;56358;56.328;43.992;2022-07-26T05:18:08;99801.47;;;25.43;61.79
69247;BME280;56358;56.328;43.992;2022-07-26T05:20:14;99819.28;;;25.53;61.90
69247;BME280;56358;56.328;43.992;2022-07-26T05:22:14;99814.44;;;25.67;61.71
69247;BME280;56358;56.328;43.992;2022-07-26T05:24:15;99805.97;;;25.68;61.65
69247;BME280;56358;56.328;43.992;2022-07-26T05:26:16;99819.59;;;25.87;60.98
69247;BME280;56358;56.328;43.992;2022-07-26T05:28:17;99820.53;;;25.92;60.84
69247;BME280;56358;56.328;43.992;2022-07-26T05:30:17;99818.91;;;26.03;60.47
69247;BME280;56358;56.328;43.992;2022-07-26T05:32:18;99778.53;;;25.80;60.01
69247;BME280;56358;56.328;43.992;2022-07-26T05:34:22;99817.59;;;26.06;60.30
69247;BME280;56358;56.328;43.992;2022-07-26T05:36:24;99832.03;;;26.13;60.54
69247;BME280;56358;56.328;43.992;2022-07-26T05:38:24;99826.22;;;26.09;59.99
69247;BME280;56358;56.328;43.992;2022-07-26T05:40:26;99782.47;;;25.84;60.12
69247;BME280;56358;56.328;43.992;2022-07-26T05:42:27;99816.63;;;26.00;60.20
69247;BME280;56358;56.328;43.992;2022-07-26T05:44:28;99821.97;;;25.95;60.49
69247;BME280;56358;56.328;43.992;2022-07-26T05:46:28;99821.00;;;26.01;60.39
69247;BME280;56358;56.328;43.992;2022-07-26T05:48:29;99809.00;;;26.14;59.34
69247;BME280;56358;56.328;43.992;2022-07-26T05:50:30;99815.00;;;26.23;58.43
69247;BME280;56358;56.328;43.992;2022-07-26T05:52:32;99821.88;;;26.37;57.61
69247;BME280;56358;56.328;43.992;2022-07-26T05:54:33;99777.72;;;26.27;57.41
69247;BME280;56358;56.328;43.992;2022-07-26T05:56:33;99831.66;;;26.69;57.16
69247;BME280;56358;56.328;43.992;2022-07-26T05:58:37;99829.16;;;26.79;56.94
69247;BME280;56358;56.328;43.992;2022-07-26T06:00:38;99775.16;;;26.49;56.43
69247;BME280;56358;56.328;43.992;2022-07-26T06:02:39;99781.44;;;26.62;56.10
69247;BME280;56358;56.328;43.992;2022-07-26T06:04:40;99830.28;;;26.95;55.99
69247;BME280;56358;56.328;43.992;2022-07-26T06:06:41;99804.72;;;26.95;55.70
69247;BME280;56358;56.328;43.992;2022-07-26T06:08:42;99759.22;;;26.75;55.41
69247;BME280;56358;56.328;43.992;2022-07-26T06:10:42;99825.97;;;27.28;55.98
69247;BME280;56358;56.328;43.992;2022-07-26T06:12:43;99829.66;;;27.34;54.67
69247;BME280;56358;56.328;43.992;2022-07-26T06:14:44;99820.06;;;27.48;53.36
69247;BME280;56358;56.328;43.992;2022-07-26T06:16:48;99831.72;;;27.55;53.39
69247;BME280;56358;56.328;43.992;2022-07-26T06:18:49;99809.13;;;27.53;52.95
69247;BME280;56358;56.328;43.992;2022-07-26T06:20:49;99828.19;;;27.72;52.93
69247;BME280;56358;56.328;43.992;2022-07-26T06:22:50;99815.75;;;27.69;53.31
69247;BME280;56358;56.328;43.992;2022-07-26T06:24:52;99806.97;;;27.72;53.37
69247;BME280;56358;56.328;43.992;2022-07-26T06:26:53;99811.16;;;27.75;52.43
69247;BME280;56358;56.328;43.992;2022-07-26T06:28:56;99830.69;;;27.90;52.48
69247;BME280;56358;56.328;43.992;2022-07-26T06:30:57;99839.00;;;27.96;53.21
69247;BME280;56358;56.328;43.992;2022-07-26T06:32:58;99803.31;;;27.84;53.04
69247;BME280;56358;56.328;43.992;2022-07-26T06:34:59;99831.72;;;28.01;52.51
69247;BME280;56358;56.328;43.992;2022-07-26T06:37:00;99834.78;;;28.05;52.38
69247;BME280;56358;56.328;43.992;2022-07-26T06:39:00;99818.84;;;28.07;52.67
69247;BME280;56358;56.328;43.992;2022-07-26T06:41:01;99823.84;;;28.10;52.22
69247;BME280;56358;56.328;43.992;2022-07-26T06:43:02;99848.66;;;28.10;52.31
69247;BME280;56358;56.328;43.992;2022-07-26T06:45:07;99820.34;;;28.15;51.85
69247;BME280;56358;56.328;43.992;2022-07-26T06:47:07;99833.53;;;28.30;51.48
69247;BME280;56358;56.328;43.992;2022-07-26T06:49:08;99820.25;;;28.26;51.87
69247;BME280;56358;56.328;43.992;2022-07-26T06:51:09;99825.72;;;28.43;50.57
69247;BME280;56358;56.328;43.992;2022-07-26T06:53:10;99830.88;;;28.57;50.13
69247;BME280;56358;56.328;43.992;2022-07-26T06:55:10;99843.41;;;28.65;49.07
69247;BME280;56358;56.328;43.992;2022-07-26T06:57:12;99834.47;;;28.57;49.72
69247;BME280;56358;56.328;43.992;2022-07-26T06:59:13;99745.09;;;28.14;49.89
69247;BME280;56358;56.328;43.992;2022-07-26T07:01:13;99829.25;;;28.78;48.94
69247;BME280;56358;56.328;43.992;2022-07-26T07:03:14;99816.53;;;28.77;49.27
69247;BME280;56358;56.328;43.992;2022-07-26T07:05:15;99851.06;;;29.02;48.28
69247;BME280;56358;56.328;43.992;2022-07-26T07:07:16;99837.91;;;28.87;48.36
69247;BME280;56358;56.328;43.992;2022-07-26T07:09:16;99828.59;;;28.93;48.43
69247;BME280;56358;56.328;43.992;2022-07-26T07:11:17;99758.44;;;28.62;48.50
69247;BME280;56358;56.328;43.992;2022-07-26T07:13:18;99847.06;;;29.15;48.76
69247;BME280;56358;56.328;43.992;2022-07-26T07:15:19;99850.34;;;29.12;49.10
69247;BME280;56358;56.328;43.992;2022-07-26T07:17:20;99839.75;;;29.03;49.18
69247;BME280;56358;56.328;43.992;2022-07-26T07:19:21;99841.56;;;28.92;49.26
69247;BME280;56358;56.328;43.992;2022-07-26T07:21:21;99852.78;;;29.08;49.02
69247;BME280;56358;56.328;43.992;2022-07-26T07:23:22;99863.13;;;29.18;49.14
69247;BME280;56358;56.328;43.992;2022-07-26T07:25:23;99834.09;;;29.15;48.59
69247;BME280;56358;56.328;43.992;2022-07-26T07:27:23;99862.22;;;29.34;48.31
69247;BME280;56358;56.328;43.992;2022-07-26T07:29:24;99859.13;;;29.31;47.96
69247;BME280;56358;56.328;43.992;2022-07-26T07:31:25;99854.63;;;29.24;48.35
69247;BME280;56358;56.328;43.992;2022-07-26T07:33:26;99863.50;;;29.26;48.14
69247;BME280;56358;56.328;43.992;2022-07-26T07:35:27;99866.75;;;29.23;48.48
69247;BME280;56358;56.328;43.992;2022-07-26T07:37:27;99842.38;;;29.15;47.99
69247;BME280;56358;56.328;43.992;2022-07-26T07:39:28;99851.72;;;29.31;48.41
69247;BME280;56358;56.328;43.992;2022-07-26T07:41:28;99865.38;;;29.48;47.67
69247;BME280;56358;56.328;43.992;2022-07-26T07:43:29;99850.19;;;29.46;47.14
69247;BME280;56358;56.328;43.992;2022-07-26T07:45:30;99858.16;;;29.69;47.51
69247;BME280;56358;56.328;43.992;2022-07-26T07:47:33;99808.75;;;29.40;46.89
69247;BME280;56358;56.328;43.992;2022-07-26T07:49:35;99862.00;;;29.68;46.93
69247;BME280;56358;56.328;43.992;2022-07-26T07:51:35;99848.97;;;29.64;47.22
69247;BME280;56358;56.328;43.992;2022-07-26T07:53:39;99860.16;;;29.79;46.76
69247;BME280;56358;56.328;43.992;2022-07-26T07:55:39;99842.44;;;29.75;46.06
69247;BME280;56358;56.328;43.992;2022-07-26T07:57:40;99796.47;;;29.58;45.12
69247;BME280;56358;56.328;43.992;2022-07-26T07:59:43;99839.31;;;29.93;45.04
69247;BME280;56358;56.328;43.992;2022-07-26T08:01:44;99845.50;;;30.06;44.78
69247;BME280;56358;56.328;43.992;2022-07-26T08:03:45;99855.31;;;30.24;44.56
69247;BME280;56358;56.328;43.992;2022-07-26T08:05:47;99835.38;;;30.22;44.24
69247;BME280;56358;56.328;43.992;2022-07-26T08:07:48;99764.69;;;29.88;44.09
69247;BME280;56358;56.328;43.992;2022-07-26T08:09:48;99810.84;;;30.31;44.22
69247;BME280;56358;56.328;43.992;2022-07-26T08:11:49;99835.88;;;30.51;44.25
69247;BME280;56358;56.328;43.992;2022-07-26T08:13:52;99824.47;;;30.42;43.73
69247;BME280;56358;56.328;43.992;2022-07-26T08:15:54;99832.59;;;30.59;44.01
69247;BME280;56358;56.328;43.992;2022-07-26T08:17:54;99827.41;;;30.73;43.98
69247;BME280;56358;56.328;43.992;2022-07-26T08:19:55;99830.47;;;30.82;43.33
69247;BME280;56358;56.328;43.992;2022-07-26T08:21:56;99780.88;;;30.60;43.11
69247;BME280;56358;56.328;43.992;2022-07-26T08:23:56;99830.22;;;30.89;43.56
69247;BME280;56358;56.328;43.992;2022-07-26T08:25:57;99847.97;;;30.98;43.31
69247;BME280;56358;56.328;43.992;2022-07-26T08:27:58;99836.63;;;30.89;43.67
69247;BME280;56358;56.328;43.992;2022-07-26T08:29:59;99832.13;;;30.78;44.06
69247;BME280;56358;56.328;43.992;2022-07-26T08:31:59;99762.72;;;30.26;44.26
69247;BME280;56358;56.328;43.992;2022-07-26T08:34:00;99834.03;;;30.72;43.92
69247;BME280;56358;56.328;43.992;2022-07-26T08:36:01;99793.28;;;30.52;44.26
69247;BME280;56358;56.328;43.992;2022-07-26T08:38:01;99851.88;;;30.97;44.10
69247;BME280;56358;56.328;43.992;2022-07-26T08:40:03;99850.81;;;31.03;43.15
69247;BME280;56358;56.328;43.992;2022-07-26T08:42:12;99833.53;;;30.86;43.37
69247;BME280;56358;56.328;43.992;2022-07-26T08:44:14;99820.25;;;30.78;44.14
69247;BME280;56358;56.328;43.992;2022-07-26T08:46:14;99835.03;;;31.04;42.57
69247;BME280;56358;56.328;43.992;2022-07-26T08:48:15;99827.59;;;31.20;41.94
69247;BME280;56358;56.328;43.992;2022-07-26T08:50:17;99832.59;;;31.33;41.27
69247;BME280;56358;56.328;43.992;2022-07-26T08:52:17;99832.09;;;31.41;40.87
69247;BME280;56358;56.328;43.992;2022-07-26T08:54:18;99817.94;;;31.38;39.54
69247;BME280;56358;56.328;43.992;2022-07-26T08:56:21;99822.13;;;31.51;39.32
69247;BME280;56358;56.328;43.992;2022-07-26T08:58:21;99836.03;;;31.87;38.26
69247;BME280;56358;56.328;43.992;2022-07-26T09:00:26;99837.41;;;32.10;38.40
69247;BME280;56358;56.328;43.992;2022-07-26T09:02:39;99824.91;;;32.13;37.86
69247;BME280;56358;56.328;43.992;2022-07-26T09:04:43;99834.09;;;32.23;37.80
69247;BME280;56358;56.328;43.992;2022-07-26T09:07:05;99771.41;;;32.12;37.51
69247;BME280;56358;56.328;43.992;2022-07-26T09:09:09;99831.22;;;32.59;37.33
69247;BME280;56358;56.328;43.992;2022-07-26T09:11:25;99843.97;;;32.71;37.24
69247;BME280;56358;56.328;43.992;2022-07-26T09:16:10;99837.41;;;31.74;40.75
69247;BME280;56358;56.328;43.992;2022-07-26T09:18:27;99842.31;;;31.46;41.83
69247;BME280;56358;56.328;43.992;2022-07-26T09:20:30;99836.19;;;31.23;41.41
69247;BME280;56358;56.328;43.992;2022-07-26T09:22:31;99824.44;;;30.96;42.80
69247;BME280;56358;56.328;43.992;2022-07-26T09:24:40;99857.63;;;30.85;43.19
69247;BME280;56358;56.328;43.992;2022-07-26T09:26:54;99849.69;;;30.51;43.29
69247;BME280;56358;56.328;43.992;2022-07-26T09:29:06;99815.06;;;30.01;41.66
69247;BME280;56358;56.328;43.992;2022-07-26T09:31:07;99832.13;;;29.92;45.91
69247;BME280;56358;56.328;43.992;2022-07-26T09:33:08;99781.47;;;29.22;50.15
69247;BME280;56358;56.328;43.992;2022-07-26T09:35:14;99861.06;;;29.08;53.28
69247;BME280;56358;56.328;43.992;2022-07-26T09:37:37;99835.47;;;28.51;56.64
69247;BME280;56358;56.328;43.992;2022-07-26T09:39:59;99840.66;;;28.48;58.01
69247;BME280;56358;56.328;43.992;2022-07-26T09:42:07;99833.19;;;28.26;59.05
69247;BME280;56358;56.328;43.992;2022-07-26T09:44:26;99837.69;;;28.32;59.96
69247;BME280;56358;56.328;43.992;2022-07-26T09:46:27;99826.34;;;28.12;59.71
69247;BME280;56358;56.328;43.992;2022-07-26T09:48:28;99841.81;;;28.52;55.52
69247;BME280;56358;56.328;43.992;2022-07-26T09:50:31;99822.06;;;28.99;52.55
69247;BME280;56358;56.328;43.992;2022-07-26T09:52:32;99833.72;;;29.56;50.83
69247;BME280;56358;56.328;43.992;2022-07-26T09:54:33;99838.41;;;30.20;50.02
69247;BME280;56358;56.328;43.992;2022-07-26T09:56:51;99840.69;;;30.76;46.84
69247;BME280;56358;56.328;43.992;2022-07-26T09:58:52;99844.22;;;31.30;44.63
69247;BME280;56358;56.328;43.992;2022-07-26T10:00:53;99832.41;;;31.81;45.09
69247;BME280;56358;56.328;43.992;2022-07-26T10:02:54;99840.44;;;32.29;42.76
69247;BME280;56358;56.328;43.992;2022-07-26T10:04:54;99837.00;;;32.68;41.83
69247;BME280;56358;56.328;43.992;2022-07-26T10:06:55;99852.78;;;32.88;41.85
69247;BME280;56358;56.328;43.992;2022-07-26T10:09:01;99805.81;;;33.02;38.71
69247;BME280;56358;56.328;43.992;2022-07-26T10:11:06;99856.47;;;33.73;37.41
69247;BME280;56358;56.328;43.992;2022-07-26T10:13:09;99864.78;;;34.13;36.71
69247;BME280;56358;56.328;43.992;2022-07-26T10:15:44;99864.22;;;34.16;35.29
69247;BME280;56358;56.328;43.992;2022-07-26T10:17:45;99854.75;;;34.47;35.52
69247;BME280;56358;56.328;43.992;2022-07-26T10:19:46;99838.63;;;33.85;38.45
69247;BME280;56358;56.328;43.992;2022-07-26T10:21:47;99861.84;;;33.99;38.15
69247;BME280;56358;56.328;43.992;2022-07-26T10:23:55;99850.41;;;33.66;36.27
69247;BME280;56358;56.328;43.992;2022-07-26T10:25:57;99846.50;;;34.07;35.80
69247;BME280;56358;56.328;43.992;2022-07-26T10:27:58;99754.31;;;33.95;36.68
69247;BME280;56358;56.328;43.992;2022-07-26T10:32:18;99840.09;;;35.33;33.60
69247;BME280;56358;56.328;43.992;2022-07-26T10:34:34;99860.19;;;35.68;33.86
69247;BME280;56358;56.328;43.992;2022-07-26T10:36:38;99846.53;;;35.47;33.70
69247;BME280;56358;56.328;43.992;2022-07-26T10:38:39;99854.69;;;35.44;35.46
69247;BME280;56358;56.328;43.992;2022-07-26T10:43:10;99832.59;;;35.47;33.32
69247;BME280;56358;56.328;43.992;2022-07-26T10:45:20;99837.72;;;35.78;32.86
69247;BME280;56358;56.328;43.992;2022-07-26T10:47:21;99831.63;;;35.57;33.30